createdAt,value
2017-11-13T00:00:33.688Z,99.39
2017-11-13T00:03:01.313Z,99.27
2017-11-13T00:05:28.971Z,99.32
2017-11-13T00:07:56.647Z,99.11
2017-11-13T00:10:24.315Z,99.12
2017-11-13T00:12:51.932Z,99.26
2017-11-13T00:15:19.592Z,99.31
2017-11-13T00:17:47.284Z,99.43
2017-11-13T00:20:14.919Z,99.62
2017-11-13T00:22:42.615Z,99.73
2017-11-13T00:25:10.255Z,99.74
2017-11-13T00:27:37.908Z,99.72
2017-11-13T00:30:05.556Z,99.73
2017-11-13T00:32:33.180Z,99.83
2017-11-13T00:35:00.840Z,100.00
2017-11-13T00:37:28.536Z,100.00
2017-11-13T00:39:56.128Z,99.93
2017-11-13T00:42:23.742Z,99.84
2017-11-13T00:44:51.323Z,99.86
2017-11-13T00:47:19.025Z,99.94
2017-11-13T00:49:46.684Z,100.00
2017-11-13T00:52:14.393Z,100.00
2017-11-13T00:54:42.016Z,100.00
2017-11-13T00:57:09.691Z,100.00
2017-11-13T00:59:37.347Z,100.00
2017-11-13T01:02:05.045Z,100.00
2017-11-13T01:04:32.708Z,100.00
2017-11-13T01:07:00.389Z,100.00
2017-11-13T01:09:27.983Z,100.00
2017-11-13T01:11:55.660Z,100.00
2017-11-13T01:14:23.315Z,100.00
2017-11-13T01:16:50.995Z,100.00
2017-11-13T01:19:18.661Z,100.00
2017-11-13T01:21:46.317Z,100.00
2017-11-13T01:24:14.013Z,100.00
2017-11-13T01:26:41.665Z,100.00
2017-11-13T01:29:09.355Z,100.00
2017-11-13T01:31:36.997Z,100.00
2017-11-13T01:34:04.691Z,100.00
2017-11-13T01:36:32.296Z,100.00
2017-11-13T01:38:59.986Z,100.00
2017-11-13T01:41:27.654Z,100.00
2017-11-13T01:43:55.376Z,100.00
2017-11-13T01:46:23.029Z,100.00
2017-11-13T01:48:50.739Z,100.00
2017-11-13T01:51:18.396Z,100.00
2017-11-13T01:53:46.091Z,100.00
2017-11-13T01:56:13.802Z,100.00
2017-11-13T01:58:41.491Z,100.00
2017-11-13T02:01:09.164Z,100.00
2017-11-13T02:03:36.884Z,100.00
2017-11-13T02:06:04.640Z,100.00
2017-11-13T02:08:32.360Z,100.00
2017-11-13T02:11:00.036Z,100.00
2017-11-13T02:13:27.719Z,100.00
2017-11-13T02:15:55.393Z,100.00
2017-11-13T02:18:23.104Z,100.00
2017-11-13T02:20:50.757Z,100.00
2017-11-13T02:23:18.464Z,100.00
2017-11-13T02:25:46.155Z,100.00
2017-11-13T02:28:13.868Z,100.00
2017-11-13T02:30:41.527Z,100.00
2017-11-13T02:33:09.162Z,100.00
2017-11-13T02:35:36.875Z,100.00
2017-11-13T02:38:04.564Z,100.00
2017-11-13T02:40:32.162Z,100.00
2017-11-13T02:42:59.893Z,100.00
2017-11-13T02:45:27.507Z,100.00
2017-11-13T02:47:55.199Z,100.00
2017-11-13T02:50:22.876Z,100.00
2017-11-13T02:52:50.580Z,100.00
2017-11-13T02:55:18.291Z,100.00
2017-11-13T02:57:46.024Z,100.00
2017-11-13T03:00:13.693Z,100.00
2017-11-13T03:02:41.339Z,100.00
2017-11-13T03:05:09.021Z,100.00
2017-11-13T03:07:36.624Z,100.00
2017-11-13T03:10:04.275Z,100.00
2017-11-13T03:12:31.947Z,100.00
2017-11-13T03:14:59.651Z,100.00
2017-11-13T03:17:27.315Z,100.00
2017-11-13T03:19:54.938Z,100.00
2017-11-13T03:22:22.591Z,100.00
2017-11-13T03:24:50.404Z,100.00
2017-11-13T03:27:18.076Z,100.00
2017-11-13T03:29:45.777Z,100.00
2017-11-13T03:32:13.425Z,100.00
2017-11-13T03:34:41.120Z,100.00
2017-11-13T03:37:08.790Z,100.00
2017-11-13T03:39:36.472Z,100.00
2017-11-13T03:42:04.161Z,100.00
2017-11-13T03:44:31.864Z,100.00
2017-11-13T03:46:59.526Z,100.00
2017-11-13T03:49:27.235Z,100.00
2017-11-13T03:51:54.895Z,100.00
2017-11-13T03:54:22.585Z,100.00
2017-11-13T03:56:50.240Z,100.00
2017-11-13T03:59:17.933Z,100.00
2017-11-13T04:01:45.532Z,100.00
2017-11-13T04:04:13.218Z,100.00
2017-11-13T04:06:40.865Z,100.00
2017-11-13T04:09:08.493Z,100.00
2017-11-13T04:11:36.150Z,100.00
2017-11-13T04:14:03.893Z,100.00
2017-11-13T04:16:31.578Z,100.00
2017-11-13T04:18:59.292Z,100.00
2017-11-13T04:21:26.991Z,100.00
2017-11-13T04:23:54.647Z,100.00
2017-11-13T04:26:22.380Z,100.00
2017-11-13T04:28:50.036Z,100.00
2017-11-13T04:31:17.752Z,100.00
2017-11-13T04:33:45.405Z,100.00
2017-11-13T04:36:13.112Z,100.00
2017-11-13T04:38:40.762Z,100.00
2017-11-13T04:41:08.454Z,100.00
2017-11-13T04:43:36.141Z,100.00
2017-11-13T04:46:03.840Z,100.00
2017-11-13T04:48:31.499Z,100.00
2017-11-13T04:50:59.185Z,100.00
2017-11-13T04:53:26.790Z,100.00
2017-11-13T04:55:54.510Z,100.00
2017-11-13T04:58:22.166Z,100.00
2017-11-13T05:00:49.861Z,100.00
2017-11-13T05:03:17.524Z,100.00
2017-11-13T05:05:45.243Z,100.00
2017-11-13T05:08:12.916Z,100.00
2017-11-13T05:10:40.640Z,100.00
2017-11-13T05:13:08.315Z,100.00
2017-11-13T05:15:35.918Z,100.00
2017-11-13T05:18:03.631Z,100.00
2017-11-13T05:20:31.239Z,100.00
2017-11-13T05:22:58.878Z,100.00
2017-11-13T05:25:26.558Z,100.00
2017-11-13T05:27:54.274Z,100.00
2017-11-13T05:30:21.957Z,100.00
2017-11-13T05:32:49.657Z,100.00
2017-11-13T05:35:17.316Z,100.00
2017-11-13T05:37:44.949Z,100.00
2017-11-13T05:40:12.537Z,100.00
2017-11-13T05:42:40.163Z,100.00
2017-11-13T05:45:07.754Z,100.00
2017-11-13T05:47:35.417Z,100.00
2017-11-13T05:50:03.012Z,100.00
2017-11-13T05:52:30.639Z,100.00
2017-11-13T05:54:58.237Z,100.00
2017-11-13T05:57:25.873Z,100.00
2017-11-13T05:59:53.465Z,100.00
2017-11-13T06:02:21.106Z,100.00
2017-11-13T06:04:48.709Z,100.00
2017-11-13T06:07:16.332Z,100.00
2017-11-13T06:09:43.993Z,100.00
2017-11-13T06:12:11.597Z,100.00
2017-11-13T06:14:39.249Z,100.00
2017-11-13T06:17:06.832Z,100.00
2017-11-13T06:19:34.476Z,100.00
2017-11-13T06:22:02.073Z,100.00
2017-11-13T06:24:29.700Z,100.00
2017-11-13T06:26:57.297Z,100.00
2017-11-13T06:29:24.938Z,100.00
2017-11-13T06:31:52.531Z,100.00
2017-11-13T06:34:20.184Z,100.00
2017-11-13T06:36:47.781Z,100.00
2017-11-13T06:39:15.429Z,100.00
2017-11-13T06:41:43.069Z,100.00
2017-11-13T06:44:10.694Z,100.00
2017-11-13T06:46:38.300Z,100.00
2017-11-13T06:49:05.922Z,100.00
2017-11-13T06:51:33.516Z,100.00
2017-11-13T06:54:01.348Z,100.00
2017-11-13T06:56:28.973Z,100.00
2017-11-13T06:58:56.586Z,100.00
2017-11-13T07:01:24.300Z,100.00
2017-11-13T07:03:51.982Z,100.00
2017-11-13T07:06:19.682Z,100.00
2017-11-13T07:08:47.356Z,100.00
2017-11-13T07:11:14.981Z,100.00
2017-11-13T07:13:42.631Z,100.00
2017-11-13T07:16:10.273Z,100.00
2017-11-13T07:18:37.942Z,100.00
2017-11-13T07:21:05.616Z,100.00
2017-11-13T07:23:33.226Z,100.00
2017-11-13T07:26:00.935Z,100.00
2017-11-13T07:28:28.544Z,100.00
2017-11-13T07:30:56.184Z,100.00
2017-11-13T07:33:23.789Z,100.00
2017-11-13T07:35:51.394Z,100.00
2017-11-13T07:38:19.025Z,100.00
2017-11-13T07:40:46.656Z,100.00
2017-11-13T07:43:14.302Z,100.00
2017-11-13T07:45:41.975Z,100.00
2017-11-13T07:48:09.675Z,100.00
2017-11-13T07:50:37.328Z,100.00
2017-11-13T07:53:05.052Z,100.00
2017-11-13T07:55:32.715Z,100.00
2017-11-13T07:58:00.367Z,100.00
2017-11-13T08:00:28.031Z,100.00
2017-11-13T08:02:55.767Z,100.00
2017-11-13T08:05:23.438Z,100.00
2017-11-13T08:07:51.161Z,100.00
2017-11-13T08:10:18.822Z,100.00
2017-11-13T08:12:46.474Z,100.00
2017-11-13T08:15:14.076Z,100.00
2017-11-13T08:17:41.801Z,100.00
2017-11-13T08:20:09.454Z,100.00
2017-11-13T08:22:37.133Z,100.00
2017-11-13T08:25:05.760Z,100.00
2017-11-13T08:27:33.452Z,100.00
2017-11-13T08:30:01.143Z,100.00
2017-11-13T08:32:28.917Z,100.00
2017-11-13T08:34:56.614Z,100.00
2017-11-13T08:37:24.277Z,100.00
2017-11-13T08:39:51.963Z,100.00
2017-11-13T08:42:19.650Z,100.00
2017-11-13T08:44:47.361Z,100.00
2017-11-13T08:47:14.973Z,100.00
2017-11-13T08:49:42.619Z,100.00
2017-11-13T08:52:10.292Z,100.00
2017-11-13T08:54:37.931Z,100.00
2017-11-13T08:57:05.589Z,100.00
2017-11-13T08:59:33.272Z,100.00
2017-11-13T09:02:00.931Z,100.00
2017-11-13T09:04:28.587Z,100.00
2017-11-13T09:06:56.256Z,100.00
2017-11-13T09:09:23.968Z,100.00
2017-11-13T09:11:51.668Z,100.00
2017-11-13T09:14:19.344Z,99.82
2017-11-13T09:16:46.972Z,99.92
2017-11-13T09:19:14.638Z,100.00
2017-11-13T09:21:42.268Z,99.53
2017-11-13T09:24:10.761Z,99.41
2017-11-13T09:26:38.463Z,99.27
2017-11-13T09:29:06.118Z,99.10
2017-11-13T09:31:33.754Z,99.13
2017-11-13T09:34:01.420Z,98.32
2017-11-13T09:36:29.123Z,98.06
2017-11-13T09:38:56.793Z,97.94
2017-11-13T09:41:24.495Z,98.11
2017-11-13T09:43:52.110Z,97.67
2017-11-13T09:46:19.745Z,97.79
2017-11-13T09:48:47.331Z,97.46
2017-11-13T09:51:15.036Z,96.96
2017-11-13T09:53:42.697Z,97.39
2017-11-13T09:56:10.391Z,96.87
2017-11-13T09:58:38.055Z,96.45
2017-11-13T10:01:05.801Z,96.68
2017-11-13T10:03:33.474Z,96.59
2017-11-13T10:06:01.067Z,95.83
2017-11-13T10:08:28.766Z,95.76
2017-11-13T10:10:56.371Z,94.86
2017-11-13T10:13:24.017Z,96.21
2017-11-13T10:15:51.701Z,95.96
2017-11-13T10:18:19.356Z,95.32
2017-11-13T10:20:47.037Z,94.84
2017-11-13T10:23:14.740Z,94.29
2017-11-13T10:25:42.436Z,94.76
2017-11-13T10:28:10.126Z,94.98
2017-11-13T10:30:37.797Z,95.02
2017-11-13T10:33:05.513Z,95.04
2017-11-13T10:35:33.130Z,94.97
2017-11-13T10:38:00.816Z,95.05
2017-11-13T10:40:28.466Z,95.08
2017-11-13T10:42:56.210Z,94.83
2017-11-13T10:45:23.879Z,94.80
2017-11-13T10:47:51.576Z,94.66
2017-11-13T10:50:19.261Z,94.92
2017-11-13T10:52:46.919Z,94.78
2017-11-13T10:55:14.638Z,94.47
2017-11-13T10:57:42.240Z,94.17
2017-11-13T11:00:09.902Z,94.33
2017-11-13T11:02:37.521Z,92.13
2017-11-13T11:05:05.172Z,90.15
2017-11-13T11:07:32.767Z,90.62
2017-11-13T11:10:00.449Z,90.58
2017-11-13T11:12:29.997Z,91.16
2017-11-13T11:15:03.334Z,88.38
2017-11-13T11:17:46.732Z,88.42
2017-11-13T11:23:34.037Z,89.30
2017-11-13T11:29:19.522Z,88.10
2017-11-13T11:31:48.079Z,88.40
2017-11-13T11:37:29.478Z,87.79
2017-11-13T11:39:57.132Z,86.58
2017-11-13T11:42:24.725Z,86.64
2017-11-13T11:44:58.276Z,86.50
2017-11-13T11:47:25.891Z,86.92
2017-11-13T11:49:53.545Z,87.19
2017-11-13T11:52:21.207Z,85.86
2017-11-13T11:57:59.875Z,85.19
2017-11-13T12:00:27.524Z,84.22
2017-11-13T12:02:55.150Z,83.50
2017-11-13T12:05:22.850Z,83.20
2017-11-13T12:07:50.482Z,82.54
2017-11-13T12:10:18.119Z,81.58
2017-11-13T12:12:45.846Z,81.95
2017-11-13T12:15:13.509Z,81.31
2017-11-13T12:17:41.141Z,82.04
2017-11-13T12:20:08.794Z,80.46
2017-11-13T12:22:36.480Z,80.97
2017-11-13T12:25:05.156Z,81.63
2017-11-13T12:27:32.839Z,80.69
2017-11-13T12:30:00.504Z,79.96
2017-11-13T12:32:28.208Z,81.09
2017-11-13T12:34:55.967Z,81.04
2017-11-13T12:37:23.651Z,82.06
2017-11-13T12:39:51.299Z,80.42
2017-11-13T12:42:19.025Z,82.17
2017-11-13T12:44:46.700Z,81.40
2017-11-13T12:47:14.404Z,82.14
2017-11-13T12:49:42.039Z,82.69
2017-11-13T12:52:09.677Z,81.82
2017-11-13T12:54:37.340Z,83.27
2017-11-13T12:57:05.005Z,80.67
2017-11-13T12:59:32.621Z,81.05
2017-11-13T13:02:00.336Z,80.44
2017-11-13T13:04:28.004Z,79.78
2017-11-13T13:06:55.702Z,81.46
2017-11-13T13:09:23.385Z,80.51
2017-11-13T13:11:51.151Z,80.08
2017-11-13T13:14:18.826Z,81.12
2017-11-13T13:16:46.476Z,81.17
2017-11-13T13:19:14.131Z,79.66
2017-11-13T13:21:41.733Z,80.16
2017-11-13T13:24:09.367Z,80.01
2017-11-13T13:26:36.960Z,79.29
2017-11-13T13:29:04.585Z,79.47
2017-11-13T13:31:32.166Z,79.05
2017-11-13T13:33:59.789Z,78.35
2017-11-13T13:36:27.449Z,78.66
2017-11-13T13:38:55.084Z,75.05
2017-11-13T13:41:22.746Z,76.77
2017-11-13T13:43:50.481Z,77.02
2017-11-13T13:46:18.141Z,75.16
2017-11-13T13:48:45.768Z,75.09
2017-11-13T13:51:13.461Z,76.02
2017-11-13T13:53:41.178Z,76.53
2017-11-13T13:56:08.838Z,77.96
2017-11-13T13:58:36.560Z,77.13
2017-11-13T14:01:04.226Z,77.10
2017-11-13T14:03:31.953Z,78.03
2017-11-13T14:05:59.638Z,77.41
2017-11-13T14:08:27.363Z,80.43
2017-11-13T14:10:55.047Z,81.27
2017-11-13T14:13:22.739Z,81.56
2017-11-13T14:15:50.448Z,82.43
2017-11-13T14:18:18.119Z,81.86
2017-11-13T14:20:45.735Z,81.26
2017-11-13T14:23:13.405Z,81.92
2017-11-13T14:25:41.097Z,80.35
2017-11-13T14:28:08.777Z,79.88
2017-11-13T14:30:36.466Z,79.42
2017-11-13T14:33:04.141Z,78.92
2017-11-13T14:35:31.823Z,80.65
2017-11-13T14:37:59.509Z,81.16
2017-11-13T14:40:27.177Z,81.83
2017-11-13T14:42:54.824Z,81.73
2017-11-13T14:45:22.571Z,81.29
2017-11-13T14:47:50.159Z,81.99
2017-11-13T14:50:17.781Z,82.05
2017-11-13T14:52:45.454Z,81.88
2017-11-13T14:55:13.081Z,82.25
2017-11-13T14:57:40.661Z,82.10
2017-11-13T15:00:08.302Z,82.33
2017-11-13T15:02:35.924Z,82.53
2017-11-13T15:05:03.538Z,82.83
2017-11-13T15:07:31.172Z,83.10
2017-11-13T15:09:58.819Z,83.30
2017-11-13T15:12:26.444Z,83.66
2017-11-13T15:14:54.035Z,83.94
2017-11-13T15:17:21.717Z,84.40
2017-11-13T15:19:49.385Z,84.63
2017-11-13T15:22:17.097Z,85.13
2017-11-13T15:24:44.785Z,85.06
2017-11-13T15:27:12.414Z,85.16
2017-11-13T15:29:40.106Z,85.00
2017-11-13T15:32:07.769Z,85.07
2017-11-13T15:34:35.426Z,85.37
2017-11-13T15:37:03.085Z,85.66
2017-11-13T15:39:30.678Z,85.91
2017-11-13T15:41:58.322Z,86.08
2017-11-13T15:44:25.902Z,86.21
2017-11-13T15:46:53.537Z,86.28
2017-11-13T15:49:21.119Z,86.34
2017-11-13T15:51:48.816Z,86.47
2017-11-13T15:54:16.471Z,86.56
2017-11-13T15:56:44.146Z,86.68
2017-11-13T15:59:11.736Z,86.85
2017-11-13T16:01:39.325Z,87.17
2017-11-13T16:04:07.014Z,87.68
2017-11-13T16:06:34.655Z,88.17
2017-11-13T16:09:02.362Z,88.47
2017-11-13T16:11:29.972Z,88.93
2017-11-13T16:13:57.641Z,89.20
2017-11-13T16:16:25.271Z,89.29
2017-11-13T16:18:52.903Z,89.42
2017-11-13T16:21:20.475Z,89.95
2017-11-13T16:23:48.111Z,90.39
2017-11-13T16:26:15.708Z,90.70
2017-11-13T16:28:43.359Z,91.18
2017-11-13T16:31:10.966Z,91.62
2017-11-13T16:33:38.591Z,92.24
2017-11-13T16:36:06.183Z,92.76
2017-11-13T16:38:33.809Z,93.12
2017-11-13T16:41:01.428Z,93.48
2017-11-13T16:43:29.052Z,93.93
2017-11-13T16:45:56.653Z,94.32
2017-11-13T16:48:24.275Z,94.58
2017-11-13T16:50:51.892Z,94.75
2017-11-13T16:53:19.535Z,94.85
2017-11-13T16:55:47.180Z,94.91
2017-11-13T16:58:14.816Z,94.88
2017-11-13T17:00:42.477Z,94.88
2017-11-13T17:03:10.120Z,94.88
2017-11-13T17:05:37.723Z,94.99
2017-11-13T17:08:05.432Z,95.13
2017-11-13T17:10:33.126Z,95.34
2017-11-13T17:13:00.789Z,95.53
2017-11-13T17:15:28.444Z,95.53
2017-11-13T17:17:56.058Z,95.56
2017-11-13T17:20:23.679Z,95.83
2017-11-13T17:22:51.264Z,96.33
2017-11-13T17:25:18.899Z,96.78
2017-11-13T17:27:46.498Z,97.35
2017-11-13T17:30:14.124Z,97.84
2017-11-13T17:32:41.723Z,98.17
2017-11-13T17:35:09.355Z,98.49
2017-11-13T17:37:36.943Z,98.56
2017-11-13T17:40:04.557Z,98.38
2017-11-13T17:42:32.177Z,97.97
2017-11-13T17:44:59.817Z,97.54
2017-11-13T17:47:27.430Z,97.59
2017-11-13T17:49:55.061Z,97.97
2017-11-13T17:52:22.671Z,98.32
2017-11-13T17:54:50.330Z,98.53
2017-11-13T17:57:17.938Z,98.63
2017-11-13T17:59:45.539Z,98.76
2017-11-13T18:02:13.202Z,98.92
2017-11-13T18:04:40.800Z,99.06
2017-11-13T18:07:08.495Z,99.20
2017-11-13T18:09:36.157Z,99.13
2017-11-13T18:12:03.846Z,98.87
2017-11-13T18:14:31.516Z,98.73
2017-11-13T18:16:59.229Z,98.82
2017-11-13T18:19:26.896Z,99.22
2017-11-13T18:21:54.544Z,99.47
2017-11-13T18:24:22.195Z,99.52
2017-11-13T18:26:49.900Z,99.17
2017-11-13T18:29:17.571Z,98.75
2017-11-13T18:31:45.263Z,98.56
2017-11-13T18:34:12.857Z,98.61
2017-11-13T18:36:40.557Z,98.95
2017-11-13T18:39:08.238Z,99.25
2017-11-13T18:41:35.969Z,99.39
2017-11-13T18:44:03.583Z,99.56
2017-11-13T18:46:31.237Z,99.71
2017-11-13T18:48:58.837Z,99.83
2017-11-13T18:51:26.434Z,99.94
2017-11-13T18:53:54.088Z,100.00
2017-11-13T18:56:21.680Z,99.91
2017-11-13T18:58:49.340Z,99.71
2017-11-13T19:01:16.922Z,99.49
2017-11-13T19:03:44.620Z,99.23
2017-11-13T19:06:12.285Z,98.96
2017-11-13T19:08:39.916Z,98.84
2017-11-13T19:11:07.572Z,98.87
2017-11-13T19:13:35.304Z,98.98
2017-11-13T19:16:03.019Z,99.12
2017-11-13T19:18:30.728Z,99.24
2017-11-13T19:20:58.402Z,99.31
2017-11-13T19:23:26.085Z,99.23
2017-11-13T19:25:53.725Z,99.12
2017-11-13T19:28:21.412Z,99.02
2017-11-13T19:30:49.112Z,98.90
2017-11-13T19:33:16.830Z,98.82
2017-11-13T19:35:44.530Z,98.82
2017-11-13T19:38:12.259Z,98.85
2017-11-13T19:40:39.957Z,98.89
2017-11-13T19:43:07.714Z,98.96
2017-11-13T19:45:35.383Z,99.02
2017-11-13T19:48:03.084Z,99.24
2017-11-13T19:50:30.760Z,99.47
2017-11-13T19:52:58.412Z,99.57
2017-11-13T19:55:26.102Z,99.61
2017-11-13T19:57:53.748Z,99.76
2017-11-13T20:00:21.456Z,99.84
2017-11-13T20:02:49.103Z,99.88
2017-11-13T20:05:16.794Z,99.91
2017-11-13T20:07:44.467Z,99.94
2017-11-13T20:10:12.188Z,99.93
2017-11-13T20:12:39.861Z,99.89
2017-11-13T20:15:07.567Z,99.84
2017-11-13T20:17:35.211Z,99.76
2017-11-13T20:20:02.895Z,99.71
2017-11-13T20:22:30.538Z,99.72
2017-11-13T20:24:58.237Z,99.72
2017-11-13T20:27:25.887Z,99.72
2017-11-13T20:29:53.569Z,99.72
2017-11-13T20:32:21.227Z,99.73
2017-11-13T20:34:48.920Z,99.74
2017-11-13T20:37:16.578Z,99.79
2017-11-13T20:39:44.245Z,99.83
2017-11-13T20:42:11.940Z,99.91
2017-11-13T20:44:39.645Z,99.92
2017-11-13T20:47:07.340Z,99.87
2017-11-13T20:49:35.029Z,99.85
2017-11-13T20:52:02.761Z,99.80
2017-11-13T20:54:30.424Z,99.79
2017-11-13T20:56:58.130Z,99.78
2017-11-13T20:59:25.788Z,99.82
2017-11-13T21:01:53.509Z,99.83
2017-11-13T21:04:21.176Z,99.78
2017-11-13T21:06:48.864Z,99.74
2017-11-13T21:09:16.461Z,99.74
2017-11-13T21:11:44.135Z,99.76
2017-11-13T21:14:11.800Z,99.85
2017-11-13T21:16:39.480Z,99.94
2017-11-13T21:19:07.081Z,99.98
2017-11-13T21:21:34.750Z,100.00
2017-11-13T21:24:02.440Z,100.00
2017-11-13T21:26:30.044Z,100.00
2017-11-13T21:28:57.751Z,100.00
2017-11-13T21:31:25.404Z,100.00
2017-11-13T21:33:53.109Z,100.00
2017-11-13T21:36:20.763Z,100.00
2017-11-13T21:38:48.400Z,100.00
2017-11-13T21:41:16.020Z,100.00
2017-11-13T21:43:43.769Z,100.00
2017-11-13T21:46:11.448Z,100.00
2017-11-13T21:48:39.159Z,100.00
2017-11-13T21:51:06.845Z,100.00
2017-11-13T21:53:34.552Z,100.00
2017-11-13T21:56:02.229Z,100.00
2017-11-13T21:58:29.910Z,100.00
2017-11-13T22:00:57.618Z,100.00
2017-11-13T22:03:25.342Z,100.00
2017-11-13T22:05:53.085Z,100.00
2017-11-13T22:08:20.867Z,100.00
2017-11-13T22:10:48.516Z,100.00
2017-11-13T22:13:16.195Z,100.00
2017-11-13T22:15:43.852Z,100.00
2017-11-13T22:18:11.520Z,100.00
2017-11-13T22:20:39.238Z,100.00
2017-11-13T22:23:06.935Z,100.00
2017-11-13T22:25:34.603Z,100.00
2017-11-13T22:28:02.291Z,100.00
2017-11-13T22:30:30.015Z,100.00
2017-11-13T22:32:57.729Z,100.00
2017-11-13T22:35:25.411Z,100.00
2017-11-13T22:37:53.558Z,100.00
2017-11-13T22:40:21.301Z,100.00
2017-11-13T22:42:49.049Z,100.00
2017-11-13T22:45:16.784Z,100.00
2017-11-13T22:47:44.500Z,100.00
2017-11-13T22:50:12.200Z,100.00
2017-11-13T22:52:39.954Z,100.00
2017-11-13T22:55:07.643Z,100.00
2017-11-13T22:57:35.366Z,100.00
2017-11-13T23:00:03.104Z,100.00
2017-11-13T23:02:30.775Z,100.00
2017-11-13T23:04:58.484Z,100.00
2017-11-13T23:07:26.222Z,100.00
2017-11-13T23:09:53.952Z,100.00
2017-11-13T23:12:21.669Z,100.00
2017-11-13T23:14:49.393Z,100.00
2017-11-13T23:17:17.137Z,100.00
2017-11-13T23:19:44.854Z,100.00
2017-11-13T23:22:12.564Z,100.00
2017-11-13T23:24:40.235Z,100.00
2017-11-13T23:27:07.949Z,100.00
2017-11-13T23:29:35.650Z,100.00
2017-11-13T23:32:03.378Z,100.00
2017-11-13T23:34:31.120Z,100.00
2017-11-13T23:36:58.852Z,100.00
2017-11-13T23:39:26.598Z,100.00
2017-11-13T23:41:54.282Z,100.00
2017-11-13T23:44:22.024Z,100.00
2017-11-13T23:46:49.811Z,100.00
2017-11-13T23:49:17.623Z,100.00
2017-11-13T23:51:45.402Z,100.00
2017-11-13T23:54:13.246Z,100.00
2017-11-13T23:56:41.453Z,100.00
2017-11-13T23:59:09.319Z,100.00
